createdAt,value
2022-08-30T00:00:50.277Z,1.95
2022-08-30T00:03:58.884Z,2.38
2022-08-30T00:07:04.742Z,2.25
2022-08-30T00:10:08.955Z,2.50
2022-08-30T00:13:14.642Z,2.30
2022-08-30T00:16:19.212Z,2.63
2022-08-30T00:19:23.248Z,2.38
2022-08-30T00:22:27.003Z,1.90
2022-08-30T00:25:31.025Z,2.30
2022-08-30T00:28:34.993Z,2.95
2022-08-30T00:31:38.384Z,3.40
2022-08-30T00:34:41.998Z,2.45
2022-08-30T00:37:45.685Z,2.42
2022-08-30T00:40:50.330Z,2.65
2022-08-30T00:43:54.983Z,3.60
2022-08-30T00:46:58.722Z,3.13
2022-08-30T00:50:03.255Z,2.92
2022-08-30T00:53:11.266Z,2.80
2022-08-30T00:56:14.909Z,3.22
2022-08-30T00:59:18.282Z,3.80
2022-08-30T01:02:24.766Z,3.13
2022-08-30T01:05:28.825Z,3.42
2022-08-30T01:08:32.716Z,3.00
2022-08-30T01:11:38.622Z,3.00
2022-08-30T01:14:42.060Z,3.33
2022-08-30T01:17:47.554Z,2.53
2022-08-30T01:21:23.096Z,2.40
2022-08-30T01:24:27.005Z,2.70
2022-08-30T01:27:31.985Z,2.80
2022-08-30T01:30:36.066Z,2.80
2022-08-30T01:33:39.277Z,2.85
2022-08-30T01:36:45.326Z,2.63
2022-08-30T01:39:49.153Z,2.20
2022-08-30T01:42:52.949Z,2.35
2022-08-30T01:45:56.772Z,2.30
2022-08-30T01:49:00.806Z,1.65
2022-08-30T01:52:06.395Z,1.55
2022-08-30T01:55:10.806Z,1.80
2022-08-30T01:58:14.054Z,1.70
2022-08-30T02:01:20.384Z,1.75
2022-08-30T02:04:24.094Z,1.10
2022-08-30T02:07:28.089Z,1.25
2022-08-30T02:10:31.602Z,1.30
2022-08-30T02:13:35.850Z,0.82
2022-08-30T02:16:40.758Z,0.80
2022-08-30T02:19:44.503Z,0.85
2022-08-30T02:22:49.288Z,1.00
2022-08-30T02:25:52.773Z,0.82
2022-08-30T02:28:56.730Z,0.85
2022-08-30T02:32:02.906Z,0.67
2022-08-30T02:35:06.396Z,0.80
2022-08-30T02:38:09.729Z,0.90
2022-08-30T02:41:13.109Z,1.10
2022-08-30T02:44:16.175Z,0.93
2022-08-30T02:47:19.840Z,1.38
2022-08-30T02:50:25.083Z,1.00
2022-08-30T02:53:28.433Z,0.93
2022-08-30T02:56:32.160Z,1.02
2022-08-30T02:59:39.160Z,0.70
2022-08-30T03:02:44.373Z,1.20
2022-08-30T03:05:48.158Z,0.88
2022-08-30T03:08:51.453Z,1.00
2022-08-30T03:11:54.928Z,0.82
2022-08-30T03:14:58.274Z,0.85
2022-08-30T03:18:01.616Z,0.90
2022-08-30T03:21:11.709Z,0.80
2022-08-30T03:24:14.616Z,0.98
2022-08-30T03:27:19.768Z,0.80
2022-08-30T03:30:23.340Z,0.70
2022-08-30T03:33:26.445Z,0.98
2022-08-30T03:36:31.353Z,1.27
2022-08-30T03:39:34.631Z,1.42
2022-08-30T03:42:38.281Z,1.10
2022-08-30T03:45:42.839Z,1.10
2022-08-30T03:48:46.366Z,1.10
2022-08-30T03:51:50.060Z,1.20
2022-08-30T03:54:53.035Z,0.70
2022-08-30T03:57:56.164Z,0.95
2022-08-30T04:01:01.388Z,0.80
2022-08-30T04:04:05.268Z,0.80
2022-08-30T04:07:09.771Z,0.63
2022-08-30T04:10:12.818Z,0.60
2022-08-30T04:13:16.616Z,1.05
2022-08-30T04:16:21.033Z,0.70
2022-08-30T04:19:24.081Z,0.50
2022-08-30T04:22:27.948Z,1.10
2022-08-30T04:25:31.298Z,1.20
2022-08-30T04:28:35.818Z,2.88
2022-08-30T04:31:39.214Z,1.98
2022-08-30T04:34:42.331Z,0.95
2022-08-30T04:37:45.590Z,0.95
2022-08-30T04:40:52.539Z,0.70
2022-08-30T04:43:56.579Z,0.60
2022-08-30T04:47:00.436Z,0.70
2022-08-30T04:50:05.950Z,0.88
2022-08-30T04:53:09.714Z,0.70
2022-08-30T04:56:17.454Z,0.90
2022-08-30T04:59:22.197Z,0.73
2022-08-30T05:02:26.413Z,0.73
2022-08-30T05:05:42.268Z,1.00
2022-08-30T05:08:46.952Z,1.27
2022-08-30T05:11:50.550Z,0.77
2022-08-30T05:14:55.045Z,0.82
2022-08-30T05:17:58.868Z,0.80
2022-08-30T05:21:13.331Z,0.75
2022-08-30T05:24:17.043Z,0.60
2022-08-30T05:27:21.167Z,0.70
2022-08-30T05:30:25.327Z,0.73
2022-08-30T05:33:29.590Z,0.40
2022-08-30T05:36:35.600Z,0.57
2022-08-30T05:39:50.789Z,0.50
2022-08-30T05:42:55.155Z,0.60
2022-08-30T05:46:08.011Z,0.80
2022-08-30T05:49:11.836Z,1.00
2022-08-30T05:52:18.529Z,0.47
2022-08-30T05:55:21.545Z,0.80
2022-08-30T05:58:25.061Z,0.50
2022-08-30T06:01:33.693Z,0.95
2022-08-30T06:04:40.504Z,1.17
2022-08-30T06:07:46.993Z,0.85
2022-08-30T06:10:51.213Z,0.60
2022-08-30T06:13:55.743Z,0.60
2022-08-30T06:16:59.817Z,0.90
2022-08-30T06:20:03.327Z,0.80
2022-08-30T06:23:07.393Z,0.80
2022-08-30T06:26:11.770Z,0.98
2022-08-30T06:29:21.580Z,0.70
2022-08-30T06:32:25.464Z,0.43
2022-08-30T06:35:32.645Z,0.50
2022-08-30T06:38:39.628Z,0.98
2022-08-30T06:41:43.728Z,0.80
2022-08-30T06:45:10.679Z,0.70
2022-08-30T06:48:15.508Z,0.80
2022-08-30T06:51:29.135Z,1.20
2022-08-30T06:54:33.395Z,1.15
2022-08-30T06:57:37.223Z,1.33
2022-08-30T07:00:42.362Z,1.40
2022-08-30T07:03:45.713Z,1.15
2022-08-30T07:06:49.745Z,1.08
2022-08-30T07:09:54.422Z,0.80
2022-08-30T07:12:58.329Z,1.25
2022-08-30T07:16:02.528Z,0.93
2022-08-30T07:19:07.349Z,0.82
2022-08-30T07:22:10.339Z,0.70
2022-08-30T07:25:15.821Z,0.50
2022-08-30T07:28:18.740Z,0.40
2022-08-30T07:31:22.396Z,0.47
2022-08-30T07:34:27.489Z,0.68
2022-08-30T07:37:31.634Z,0.70
2022-08-30T07:40:35.566Z,0.80
2022-08-30T07:43:39.398Z,0.75
2022-08-30T07:46:43.841Z,0.88
2022-08-30T07:49:47.483Z,0.90
2022-08-30T07:52:51.711Z,0.90
2022-08-30T07:55:55.639Z,1.50
2022-08-30T07:58:59.638Z,0.70
2022-08-30T08:02:03.597Z,1.00
2022-08-30T08:05:09.638Z,0.70
2022-08-30T08:08:14.963Z,0.82
2022-08-30T08:11:29.422Z,0.60
2022-08-30T08:14:37.266Z,0.88
2022-08-30T08:17:41.284Z,1.45
2022-08-30T08:20:45.785Z,1.15
2022-08-30T08:23:49.730Z,1.20
2022-08-30T08:26:53.640Z,0.70
2022-08-30T08:29:57.837Z,1.45
2022-08-30T08:33:01.238Z,1.02
2022-08-30T08:36:08.874Z,1.20
2022-08-30T08:39:12.961Z,0.70
2022-08-30T08:42:37.669Z,1.00
2022-08-30T08:45:52.390Z,0.90
2022-08-30T08:49:02.379Z,0.50
2022-08-30T08:52:27.681Z,0.60
2022-08-30T08:55:31.433Z,1.02
2022-08-30T08:58:48.026Z,0.90
2022-08-30T09:01:51.965Z,1.20
2022-08-30T09:04:59.307Z,1.25
2022-08-30T09:08:10.049Z,1.27
2022-08-30T09:11:22.311Z,1.50
2022-08-30T09:14:44.297Z,1.27
2022-08-30T09:18:19.783Z,1.30
2022-08-30T09:21:33.162Z,1.30
2022-08-30T09:24:48.588Z,0.82
2022-08-30T09:27:53.642Z,1.10
2022-08-30T09:31:12.424Z,1.10
2022-08-30T09:34:22.885Z,2.25
2022-08-30T09:37:30.091Z,1.02
2022-08-30T09:40:48.546Z,0.75
2022-08-30T09:44:32.361Z,0.90
2022-08-30T09:47:35.383Z,0.82
2022-08-30T09:50:39.479Z,0.80
2022-08-30T09:57:33.662Z,0.60
2022-08-30T10:00:45.812Z,0.73
2022-08-30T10:04:23.178Z,0.52
2022-08-30T10:07:42.232Z,0.80
2022-08-30T10:10:51.931Z,0.82
2022-08-30T10:14:37.255Z,1.08
2022-08-30T10:17:53.181Z,1.27
2022-08-30T10:21:19.430Z,1.02
2022-08-30T10:24:33.305Z,0.77
2022-08-30T10:27:49.048Z,1.40
2022-08-30T10:31:07.896Z,1.17
2022-08-30T10:34:42.112Z,1.40
2022-08-30T10:38:07.589Z,1.20
2022-08-30T10:41:28.713Z,0.80
2022-08-30T10:44:38.678Z,0.70
2022-08-30T10:47:48.469Z,0.88
2022-08-30T10:50:59.726Z,0.90
2022-08-30T10:54:23.951Z,0.70
2022-08-30T10:57:28.221Z,0.68
2022-08-30T11:01:07.296Z,0.95
2022-08-30T11:04:53.059Z,0.80
2022-08-30T11:08:20.538Z,0.95
2022-08-30T11:11:43.984Z,1.00
2022-08-30T11:14:47.914Z,1.15
2022-08-30T11:18:00.177Z,0.82
2022-08-30T11:21:21.594Z,0.88
2022-08-30T11:24:27.156Z,0.60
2022-08-30T11:28:00.388Z,0.60
2022-08-30T11:31:11.221Z,1.20
2022-08-30T11:34:49.447Z,1.73
2022-08-30T11:37:52.893Z,1.65
2022-08-30T11:40:55.933Z,0.70
2022-08-30T11:44:24.422Z,1.67
2022-08-30T11:47:41.251Z,2.22
2022-08-30T11:51:08.174Z,1.60
2022-08-30T11:54:38.670Z,2.40
2022-08-30T11:57:58.955Z,2.40
2022-08-30T12:01:50.957Z,2.75
2022-08-30T12:04:54.027Z,1.30
2022-08-30T12:08:04.025Z,2.53
2022-08-30T12:11:13.392Z,1.25
2022-08-30T12:14:52.233Z,1.42
2022-08-30T12:18:17.288Z,1.73
2022-08-30T12:21:23.441Z,1.00
2022-08-30T12:24:37.228Z,1.00
2022-08-30T12:27:40.961Z,1.13
2022-08-30T12:30:46.487Z,1.67
2022-08-30T12:33:56.056Z,1.25
2022-08-30T12:37:21.370Z,2.15
2022-08-30T12:40:26.316Z,1.00
2022-08-30T12:43:41.651Z,1.08
2022-08-30T12:46:49.722Z,0.75
2022-08-30T12:49:55.649Z,0.82
2022-08-30T12:53:14.141Z,0.63
2022-08-30T12:56:47.058Z,1.15
2022-08-30T12:59:58.161Z,1.73
2022-08-30T13:03:16.096Z,2.08
2022-08-30T13:06:52.653Z,1.77
2022-08-30T13:10:07.056Z,2.22
2022-08-30T13:13:10.745Z,2.22
2022-08-30T13:16:26.481Z,2.25
2022-08-30T13:19:42.311Z,1.70
2022-08-30T13:23:13.501Z,1.30
2022-08-30T13:26:23.101Z,1.25
2022-08-30T13:29:28.905Z,0.85
2022-08-30T13:32:38.992Z,1.45
2022-08-30T13:35:43.751Z,0.90
2022-08-30T13:38:47.554Z,1.00
2022-08-30T13:41:52.635Z,0.85
2022-08-30T13:44:56.278Z,1.20
2022-08-30T13:48:02.829Z,1.60
2022-08-30T13:51:10.679Z,1.55
2022-08-30T13:54:17.077Z,2.28
2022-08-30T14:00:48.061Z,1.73
2022-08-30T14:07:19.988Z,1.00
2022-08-30T14:10:31.228Z,1.50
2022-08-30T14:13:36.301Z,1.65
2022-08-30T14:16:43.688Z,1.10
2022-08-30T14:19:47.113Z,0.93
2022-08-30T14:22:52.923Z,1.30
2022-08-30T14:25:56.922Z,0.88
2022-08-30T14:28:59.918Z,1.00
2022-08-30T14:32:04.312Z,1.02
2022-08-30T14:35:08.587Z,1.30
2022-08-30T14:38:13.021Z,1.30
2022-08-30T14:41:16.818Z,0.65
2022-08-30T14:44:21.943Z,1.70
2022-08-30T14:47:29.581Z,1.23
2022-08-30T14:50:34.034Z,0.93
2022-08-30T14:53:37.663Z,1.10
2022-08-30T14:56:42.376Z,1.25
2022-08-30T14:59:45.762Z,0.60
2022-08-30T15:02:50.626Z,0.88
2022-08-30T15:05:54.115Z,0.60
2022-08-30T15:08:58.255Z,0.40
2022-08-30T15:12:03.089Z,0.60
2022-08-30T15:15:06.862Z,0.85
2022-08-30T15:18:12.747Z,0.90
2022-08-30T15:21:33.337Z,0.82
2022-08-30T15:24:36.262Z,0.55
2022-08-30T15:27:39.625Z,0.60
2022-08-30T15:30:44.880Z,0.40
2022-08-30T15:33:48.323Z,0.60
2022-08-30T15:36:53.632Z,0.68
2022-08-30T15:39:56.545Z,0.57
2022-08-30T15:43:00.314Z,0.77
2022-08-30T15:46:23.495Z,0.52
2022-08-30T15:49:32.819Z,0.43
2022-08-30T15:52:36.576Z,0.50
2022-08-30T15:55:40.319Z,0.60
2022-08-30T15:58:44.478Z,0.90
2022-08-30T16:01:48.349Z,0.32
2022-08-30T16:04:52.078Z,0.40
2022-08-30T16:07:56.221Z,0.40
2022-08-30T16:11:00.601Z,0.40
2022-08-30T16:14:06.183Z,0.43
2022-08-30T16:17:09.874Z,0.40
2022-08-30T16:20:13.575Z,0.50
2022-08-30T16:23:18.203Z,0.50
2022-08-30T16:26:23.222Z,0.40
2022-08-30T16:29:28.120Z,0.60
2022-08-30T16:32:36.047Z,0.70
2022-08-30T16:35:39.455Z,0.60
2022-08-30T16:38:43.341Z,1.38
2022-08-30T16:41:47.371Z,0.80
2022-08-30T16:44:51.898Z,0.80
2022-08-30T16:47:55.989Z,0.73
2022-08-30T16:51:01.200Z,0.70
2022-08-30T16:54:07.971Z,0.50
2022-08-30T16:57:11.187Z,0.65
2022-08-30T17:00:15.536Z,0.65
2022-08-30T17:03:19.584Z,0.40
2022-08-30T17:06:24.745Z,0.40
2022-08-30T17:09:28.168Z,0.40
2022-08-30T17:12:32.473Z,0.22
2022-08-30T17:15:36.033Z,0.30
2022-08-30T17:18:40.339Z,0.30
2022-08-30T17:21:45.345Z,0.20
2022-08-30T17:24:49.628Z,0.30
2022-08-30T17:27:54.892Z,0.20
2022-08-30T17:30:58.630Z,0.30
2022-08-30T17:34:04.342Z,0.30
2022-08-30T17:37:08.079Z,0.20
2022-08-30T17:40:14.793Z,0.20
2022-08-30T17:43:17.835Z,0.20
2022-08-30T17:46:21.571Z,0.40
2022-08-30T17:49:27.212Z,0.20
2022-08-30T17:52:31.020Z,0.20
2022-08-30T17:55:34.800Z,0.20
2022-08-30T17:58:38.539Z,0.30
2022-08-30T18:01:43.134Z,0.30
2022-08-30T18:04:46.178Z,0.40
2022-08-30T18:07:50.705Z,0.57
2022-08-30T18:10:54.289Z,0.30
2022-08-30T18:13:58.128Z,0.22
2022-08-30T18:17:01.888Z,0.30
2022-08-30T18:20:07.594Z,0.40
2022-08-30T18:23:11.398Z,0.45
2022-08-30T18:26:16.067Z,0.43
2022-08-30T18:29:26.217Z,0.50
2022-08-30T18:32:35.990Z,0.52
2022-08-30T18:35:47.483Z,0.57
2022-08-30T18:38:51.529Z,0.50
2022-08-30T18:41:57.005Z,0.32
2022-08-30T18:45:12.410Z,0.80
2022-08-30T18:48:20.119Z,0.43
2022-08-30T18:51:24.789Z,0.32
2022-08-30T18:54:27.963Z,0.40
2022-08-30T18:57:31.972Z,0.68
2022-08-30T19:00:35.635Z,0.30
2022-08-30T19:03:40.779Z,0.20
2022-08-30T19:06:45.838Z,0.30
2022-08-30T19:09:49.966Z,0.30
2022-08-30T19:12:55.598Z,0.30
2022-08-30T19:16:00.130Z,0.28
2022-08-30T19:19:04.157Z,0.30
2022-08-30T19:22:07.797Z,0.30
2022-08-30T19:25:12.050Z,0.50
2022-08-30T19:28:16.174Z,0.57
2022-08-30T19:31:19.892Z,0.35
2022-08-30T19:34:23.902Z,0.30
2022-08-30T19:37:27.672Z,0.25
2022-08-30T19:40:31.073Z,0.30
2022-08-30T19:43:35.214Z,0.30
2022-08-30T19:46:38.943Z,0.30
2022-08-30T19:49:41.907Z,0.30
2022-08-30T19:52:50.989Z,0.30
2022-08-30T19:55:57.276Z,0.30
2022-08-30T19:59:00.960Z,0.40
2022-08-30T20:02:05.212Z,0.35
2022-08-30T20:05:12.811Z,0.35
2022-08-30T20:08:16.115Z,0.40
2022-08-30T20:11:20.799Z,0.30
2022-08-30T20:14:24.290Z,0.30
2022-08-30T20:17:42.351Z,0.30
2022-08-30T20:20:51.358Z,0.28
2022-08-30T20:23:54.247Z,0.40
2022-08-30T20:26:58.479Z,0.77
2022-08-30T20:30:02.166Z,0.22
2022-08-30T20:33:08.452Z,0.35
2022-08-30T20:36:12.684Z,0.32
2022-08-30T20:39:17.430Z,0.40
2022-08-30T20:42:21.644Z,0.40
2022-08-30T20:45:24.929Z,0.50
2022-08-30T20:48:35.109Z,0.40
2022-08-30T20:51:38.229Z,0.30
2022-08-30T20:54:44.437Z,0.40
2022-08-30T20:57:47.759Z,0.60
2022-08-30T21:00:55.761Z,0.40
2022-08-30T21:03:59.080Z,0.57
2022-08-30T21:07:02.828Z,1.02
2022-08-30T21:10:07.396Z,1.10
2022-08-30T21:13:11.546Z,0.40
2022-08-30T21:16:15.218Z,0.50
2022-08-30T21:19:18.897Z,0.40
2022-08-30T21:22:22.545Z,0.50
2022-08-30T21:25:25.448Z,0.50
2022-08-30T21:28:29.386Z,0.40
2022-08-30T21:31:33.844Z,0.40
2022-08-30T21:34:55.874Z,0.73
2022-08-30T21:37:58.747Z,0.40
2022-08-30T21:41:03.959Z,0.40
2022-08-30T21:44:17.076Z,0.40
2022-08-30T21:47:23.188Z,0.40
2022-08-30T21:50:27.616Z,0.30
2022-08-30T21:53:31.290Z,0.43
2022-08-30T21:56:35.508Z,0.47
2022-08-30T21:59:38.850Z,0.40
2022-08-30T22:02:42.729Z,0.50
2022-08-30T22:05:52.701Z,0.40
2022-08-30T22:08:56.358Z,0.50
2022-08-30T22:11:59.306Z,0.60
2022-08-30T22:15:04.195Z,0.50
2022-08-30T22:18:07.894Z,0.50
2022-08-30T22:21:14.666Z,0.40
2022-08-30T22:24:17.992Z,0.57
2022-08-30T22:27:21.466Z,0.60
2022-08-30T22:30:24.482Z,1.13
2022-08-30T22:33:30.163Z,0.65
2022-08-30T22:36:36.479Z,0.68
2022-08-30T22:39:40.494Z,1.25
2022-08-30T22:42:45.936Z,0.50
2022-08-30T22:45:51.942Z,0.90
2022-08-30T22:48:56.035Z,1.17
2022-08-30T22:51:59.563Z,0.40
2022-08-30T22:55:05.477Z,0.40
2022-08-30T22:58:09.162Z,0.50
2022-08-30T23:01:24.283Z,0.30
2022-08-30T23:04:28.135Z,0.47
2022-08-30T23:07:32.164Z,0.50
2022-08-30T23:10:35.521Z,0.30
2022-08-30T23:13:39.737Z,0.50
2022-08-30T23:16:43.496Z,0.50
2022-08-30T23:19:47.494Z,0.43
2022-08-30T23:22:59.987Z,0.57
2022-08-30T23:26:22.943Z,0.95
2022-08-30T23:29:45.172Z,0.30
2022-08-30T23:33:07.903Z,0.40
2022-08-30T23:36:32.713Z,0.40
2022-08-30T23:39:54.419Z,0.90
2022-08-30T23:43:16.800Z,0.50
2022-08-30T23:46:39.025Z,0.38
2022-08-30T23:50:00.257Z,0.52
2022-08-30T23:53:21.812Z,0.70
2022-08-30T23:56:43.360Z,0.75
